createdAt,value
2023-03-23T16:00:41.207Z,15.95
2023-03-23T16:05:46.267Z,15.79
2023-03-23T16:10:50.775Z,15.72
2023-03-23T16:15:52.407Z,15.64
2023-03-23T16:20:53.950Z,15.48
2023-03-23T16:25:55.493Z,15.41
2023-03-23T16:30:57.076Z,15.20
2023-03-23T16:35:58.777Z,14.99
2023-03-23T16:41:00.506Z,15.06
2023-03-23T16:46:02.341Z,15.14
2023-03-23T16:51:04.020Z,15.17
2023-03-23T16:56:05.982Z,15.11
2023-03-23T17:01:08.040Z,15.03
2023-03-23T17:06:09.795Z,15.01
2023-03-23T17:11:11.454Z,14.99
2023-03-23T17:16:13.050Z,14.87
2023-03-23T17:21:14.665Z,14.78
2023-03-23T17:26:16.435Z,14.67
2023-03-23T17:31:18.226Z,14.54
2023-03-23T17:36:19.866Z,14.43
2023-03-23T17:41:21.461Z,14.36
2023-03-23T17:46:23.098Z,14.32
2023-03-23T17:51:24.677Z,14.26
2023-03-23T17:56:26.282Z,14.16
2023-03-23T18:01:27.953Z,14.16
2023-03-23T18:06:29.501Z,14.17
2023-03-23T18:11:31.187Z,14.17
2023-03-23T18:16:33.086Z,14.17
2023-03-23T18:21:34.619Z,14.19
2023-03-23T18:26:36.446Z,14.23
2023-03-23T18:31:40.158Z,14.27
2023-03-23T18:36:44.286Z,14.35
2023-03-23T18:41:45.954Z,14.38
2023-03-23T18:46:47.497Z,14.40
2023-03-23T18:51:49.201Z,14.47
2023-03-23T18:56:50.787Z,14.50
2023-03-23T19:01:52.464Z,14.53
2023-03-23T19:06:54.054Z,14.54
2023-03-23T19:11:56.299Z,14.59
2023-03-23T19:16:57.833Z,14.59
2023-03-23T19:22:00.119Z,14.59
2023-03-23T19:27:01.945Z,14.61
2023-03-23T19:32:03.574Z,14.62
2023-03-23T19:37:10.207Z,14.66
2023-03-23T19:42:16.733Z,14.64
2023-03-23T19:47:18.509Z,14.62
2023-03-23T19:52:20.137Z,14.59
2023-03-23T19:57:22.310Z,14.59
2023-03-23T20:02:23.963Z,14.58
2023-03-23T20:07:26.957Z,14.63
2023-03-23T20:12:28.579Z,14.62
2023-03-23T20:17:30.662Z,14.60
2023-03-23T20:22:32.248Z,14.60
2023-03-23T20:27:35.000Z,14.61
2023-03-23T20:32:37.352Z,14.62
2023-03-23T20:37:40.333Z,14.57
2023-03-23T20:42:44.088Z,14.58
2023-03-23T20:47:46.149Z,14.56
2023-03-23T20:52:48.029Z,14.51
2023-03-23T20:57:49.559Z,14.43
2023-03-23T21:02:54.093Z,14.48
2023-03-23T21:07:57.977Z,14.46
2023-03-23T21:13:00.109Z,14.41
2023-03-23T21:18:01.723Z,14.41
2023-03-23T21:23:06.376Z,14.45
2023-03-23T21:28:08.928Z,14.47
2023-03-23T21:33:11.556Z,14.47
2023-03-23T21:38:14.693Z,14.44
2023-03-23T21:43:16.877Z,14.31
2023-03-23T21:48:18.867Z,14.16
2023-03-23T21:53:22.331Z,14.06
2023-03-23T21:58:27.387Z,13.92
2023-03-23T22:03:33.120Z,13.86
2023-03-23T22:08:37.245Z,13.67
2023-03-23T22:13:40.649Z,13.55
2023-03-23T22:18:43.406Z,13.42
2023-03-23T22:23:46.189Z,13.29
2023-03-23T22:28:49.538Z,13.32
2023-03-23T22:33:55.497Z,13.34
2023-03-23T22:38:57.144Z,13.31
2023-03-23T22:43:58.801Z,12.75
2023-03-23T22:49:00.640Z,12.38
2023-03-23T22:54:02.309Z,12.12
2023-03-23T22:59:07.792Z,11.91
2023-03-23T23:04:09.569Z,11.83
2023-03-23T23:09:11.190Z,11.89
2023-03-23T23:14:12.760Z,12.03
2023-03-23T23:19:14.916Z,12.01
2023-03-23T23:24:17.087Z,11.65
2023-03-23T23:29:18.801Z,11.49
2023-03-23T23:34:22.134Z,11.44
2023-03-23T23:39:23.645Z,11.41
2023-03-23T23:44:25.575Z,11.19
2023-03-23T23:49:29.911Z,10.94
2023-03-23T23:54:31.755Z,10.88
2023-03-23T23:59:33.408Z,10.84
